KLMO

Vance Brand Airport

Longmont, Colorado, USA
METAR KLMO 151315Z AUTO 20003KT 10SM CLR M08/M11 A3005 RMK AO2 T10791109
Observed Flight Rules
Dec-15 @ 13:15 UTC (29 minutes ago) Visual Flight Rules
Wind Visibility Clouds
200° at 3 knots 10 miles
  • Clear skies
Temperatures Readings
Current -8°C / 18°F
Dewpoint -11°C / 12°F
Humidity 79%
Altimeter 30.05" Hg
Pressure 1018 hPa
Elevation 1541
METAR KLMO 151315Z AUTO 20003KT 10SM CLR M08/M11 A3005 RMK AO2 T10791109
Observed Flight Rules
Dec-15 @ 13:15 UTC
(29 minutes ago)
VFR
Wind Visibility
200° at 3 knots 10 miles
Clouds
  • Clear skies
Temperature Dewpoint
-8°C / 18°F -11°C / 12°F
Humidity Altimeter Pressure
79% 30.05" Hg 1018 hPa